sensor_id;sensor_type;location;lat;lon;timestamp;P1;durP1;ratioP1;P2;durP2;ratioP2
20076;SDS011;12348;42.710;23.378;2023-05-10T00:03:14;10.40;;;7.47;;
20076;SDS011;12348;42.710;23.378;2023-05-10T00:05:40;15.17;;;10.03;;
20076;SDS011;12348;42.710;23.378;2023-05-10T00:08:07;13.33;;;10.20;;
20076;SDS011;12348;42.710;23.378;2023-05-10T00:10:36;13.73;;;9.63;;
20076;SDS011;12348;42.710;23.378;2023-05-10T00:13:03;10.87;;;7.43;;
20076;SDS011;12348;42.710;23.378;2023-05-10T00:15:30;6.47;;;5.40;;
20076;SDS011;12348;42.710;23.378;2023-05-10T00:17:57;12.50;;;6.93;;
20076;SDS011;12348;42.710;23.378;2023-05-10T00:20:24;9.17;;;5.67;;
20076;SDS011;12348;42.710;23.378;2023-05-10T00:22:51;9.23;;;6.57;;
20076;SDS011;12348;42.710;23.378;2023-05-10T00:25:18;11.80;;;7.23;;
20076;SDS011;12348;42.710;23.378;2023-05-10T00:27:47;10.17;;;6.37;;
20076;SDS011;12348;42.710;23.378;2023-05-10T00:30:14;11.23;;;7.07;;
20076;SDS011;12348;42.710;23.378;2023-05-10T00:32:41;16.37;;;9.47;;
20076;SDS011;12348;42.710;23.378;2023-05-10T00:35:08;13.43;;;9.00;;
20076;SDS011;12348;42.710;23.378;2023-05-10T00:37:35;15.00;;;10.37;;
20076;SDS011;12348;42.710;23.378;2023-05-10T00:40:02;14.37;;;9.77;;
20076;SDS011;12348;42.710;23.378;2023-05-10T00:42:29;14.43;;;8.90;;
20076;SDS011;12348;42.710;23.378;2023-05-10T00:44:58;16.80;;;10.63;;
20076;SDS011;12348;42.710;23.378;2023-05-10T00:47:24;18.43;;;12.13;;
20076;SDS011;12348;42.710;23.378;2023-05-10T00:49:51;18.70;;;12.87;;
20076;SDS011;12348;42.710;23.378;2023-05-10T00:52:18;18.73;;;11.90;;
20076;SDS011;12348;42.710;23.378;2023-05-10T00:54:45;21.57;;;12.53;;
20076;SDS011;12348;42.710;23.378;2023-05-10T00:57:13;19.00;;;11.97;;
20076;SDS011;12348;42.710;23.378;2023-05-10T00:59:40;19.40;;;13.20;;
20076;SDS011;12348;42.710;23.378;2023-05-10T01:02:09;18.53;;;12.07;;
20076;SDS011;12348;42.710;23.378;2023-05-10T01:04:35;18.30;;;12.17;;
20076;SDS011;12348;42.710;23.378;2023-05-10T01:07:04;21.90;;;13.17;;
20076;SDS011;12348;42.710;23.378;2023-05-10T01:09:31;23.97;;;13.23;;
20076;SDS011;12348;42.710;23.378;2023-05-10T01:11:59;21.43;;;13.53;;
20076;SDS011;12348;42.710;23.378;2023-05-10T01:14:27;19.77;;;10.53;;
20076;SDS011;12348;42.710;23.378;2023-05-10T01:16:54;20.27;;;12.30;;
20076;SDS011;12348;42.710;23.378;2023-05-10T01:19:23;23.30;;;13.73;;
20076;SDS011;12348;42.710;23.378;2023-05-10T01:21:55;21.70;;;14.50;;
20076;SDS011;12348;42.710;23.378;2023-05-10T01:24:39;20.37;;;12.27;;
20076;SDS011;12348;42.710;23.378;2023-05-10T01:27:37;21.00;;;13.90;;
20076;SDS011;12348;42.710;23.378;2023-05-10T01:33:16;18.90;;;9.90;;
20076;SDS011;12348;42.710;23.378;2023-05-10T01:35:47;15.50;;;9.67;;
20076;SDS011;12348;42.710;23.378;2023-05-10T01:38:22;15.47;;;10.43;;
20076;SDS011;12348;42.710;23.378;2023-05-10T01:40:58;12.17;;;9.03;;
20076;SDS011;12348;42.710;23.378;2023-05-10T01:43:32;15.03;;;8.57;;
20076;SDS011;12348;42.710;23.378;2023-05-10T01:46:09;16.10;;;8.93;;
20076;SDS011;12348;42.710;23.378;2023-05-10T01:48:45;13.20;;;8.37;;
20076;SDS011;12348;42.710;23.378;2023-05-10T01:51:15;10.83;;;7.67;;
20076;SDS011;12348;42.710;23.378;2023-05-10T01:53:46;15.50;;;11.20;;
20076;SDS011;12348;42.710;23.378;2023-05-10T01:56:14;11.80;;;8.70;;
20076;SDS011;12348;42.710;23.378;2023-05-10T01:58:43;13.40;;;9.10;;
20076;SDS011;12348;42.710;23.378;2023-05-10T02:01:13;14.07;;;9.47;;
20076;SDS011;12348;42.710;23.378;2023-05-10T02:03:42;14.97;;;9.03;;
20076;SDS011;12348;42.710;23.378;2023-05-10T02:06:10;14.13;;;10.17;;
20076;SDS011;12348;42.710;23.378;2023-05-10T02:08:41;14.63;;;9.87;;
20076;SDS011;12348;42.710;23.378;2023-05-10T02:11:10;13.83;;;8.10;;
20076;SDS011;12348;42.710;23.378;2023-05-10T02:13:39;9.17;;;6.83;;
20076;SDS011;12348;42.710;23.378;2023-05-10T02:16:08;9.87;;;7.43;;
20076;SDS011;12348;42.710;23.378;2023-05-10T02:18:36;10.43;;;7.27;;
20076;SDS011;12348;42.710;23.378;2023-05-10T02:21:04;12.23;;;8.70;;
20076;SDS011;12348;42.710;23.378;2023-05-10T02:23:31;13.60;;;8.57;;
20076;SDS011;12348;42.710;23.378;2023-05-10T02:25:59;11.73;;;8.17;;
20076;SDS011;12348;42.710;23.378;2023-05-10T02:28:28;17.37;;;10.13;;
20076;SDS011;12348;42.710;23.378;2023-05-10T02:30:55;10.13;;;7.63;;
20076;SDS011;12348;42.710;23.378;2023-05-10T02:33:23;9.87;;;7.43;;
20076;SDS011;12348;42.710;23.378;2023-05-10T02:35:50;16.57;;;8.80;;
20076;SDS011;12348;42.710;23.378;2023-05-10T02:38:19;13.13;;;7.83;;
20076;SDS011;12348;42.710;23.378;2023-05-10T02:40:47;9.37;;;7.13;;
20076;SDS011;12348;42.710;23.378;2023-05-10T02:43:15;7.60;;;6.80;;
20076;SDS011;12348;42.710;23.378;2023-05-10T02:45:43;6.30;;;5.53;;
20076;SDS011;12348;42.710;23.378;2023-05-10T02:48:14;6.90;;;6.07;;
20076;SDS011;12348;42.710;23.378;2023-05-10T02:50:42;9.80;;;5.37;;
20076;SDS011;12348;42.710;23.378;2023-05-10T02:53:15;7.03;;;4.93;;
20076;SDS011;12348;42.710;23.378;2023-05-10T02:55:48;5.37;;;4.50;;
20076;SDS011;12348;42.710;23.378;2023-05-10T02:58:17;10.03;;;6.10;;
20076;SDS011;12348;42.710;23.378;2023-05-10T03:00:46;8.20;;;6.30;;
20076;SDS011;12348;42.710;23.378;2023-05-10T03:03:13;8.83;;;5.37;;
20076;SDS011;12348;42.710;23.378;2023-05-10T03:05:39;6.43;;;5.00;;
20076;SDS011;12348;42.710;23.378;2023-05-10T03:08:06;6.77;;;5.50;;
20076;SDS011;12348;42.710;23.378;2023-05-10T03:10:33;8.50;;;4.73;;
20076;SDS011;12348;42.710;23.378;2023-05-10T03:13:10;7.07;;;5.13;;
20076;SDS011;12348;42.710;23.378;2023-05-10T03:15:45;7.37;;;5.07;;
20076;SDS011;12348;42.710;23.378;2023-05-10T03:18:21;7.50;;;5.03;;
20076;SDS011;12348;42.710;23.378;2023-05-10T03:20:50;9.13;;;5.77;;
20076;SDS011;12348;42.710;23.378;2023-05-10T03:23:24;12.33;;;7.33;;
20076;SDS011;12348;42.710;23.378;2023-05-10T03:25:55;7.40;;;4.50;;
20076;SDS011;12348;42.710;23.378;2023-05-10T03:28:25;6.67;;;5.43;;
20076;SDS011;12348;42.710;23.378;2023-05-10T03:30:53;8.83;;;4.87;;
20076;SDS011;12348;42.710;23.378;2023-05-10T03:33:22;10.90;;;5.93;;
20076;SDS011;12348;42.710;23.378;2023-05-10T03:35:49;5.17;;;3.93;;
20076;SDS011;12348;42.710;23.378;2023-05-10T03:38:16;8.67;;;5.70;;
20076;SDS011;12348;42.710;23.378;2023-05-10T03:40:43;14.43;;;6.90;;
20076;SDS011;12348;42.710;23.378;2023-05-10T03:43:09;9.10;;;6.20;;
20076;SDS011;12348;42.710;23.378;2023-05-10T03:45:38;6.40;;;4.87;;
20076;SDS011;12348;42.710;23.378;2023-05-10T03:48:05;9.27;;;4.73;;
20076;SDS011;12348;42.710;23.378;2023-05-10T03:50:32;13.43;;;6.27;;
20076;SDS011;12348;42.710;23.378;2023-05-10T03:52:58;8.43;;;4.30;;
20076;SDS011;12348;42.710;23.378;2023-05-10T03:55:26;8.60;;;4.77;;
20076;SDS011;12348;42.710;23.378;2023-05-10T03:57:53;5.27;;;4.33;;
20076;SDS011;12348;42.710;23.378;2023-05-10T04:00:20;11.53;;;5.40;;
20076;SDS011;12348;42.710;23.378;2023-05-10T04:02:48;11.30;;;5.47;;
20076;SDS011;12348;42.710;23.378;2023-05-10T04:05:15;7.63;;;5.93;;
20076;SDS011;12348;42.710;23.378;2023-05-10T04:07:42;5.90;;;3.60;;
20076;SDS011;12348;42.710;23.378;2023-05-10T04:10:09;8.17;;;5.27;;
20076;SDS011;12348;42.710;23.378;2023-05-10T04:12:36;5.83;;;3.47;;
20076;SDS011;12348;42.710;23.378;2023-05-10T04:15:04;6.70;;;4.10;;
20076;SDS011;12348;42.710;23.378;2023-05-10T04:17:31;7.70;;;4.77;;
20076;SDS011;12348;42.710;23.378;2023-05-10T04:20:00;9.80;;;4.90;;
20076;SDS011;12348;42.710;23.378;2023-05-10T04:22:26;6.40;;;4.13;;
20076;SDS011;12348;42.710;23.378;2023-05-10T04:24:54;3.90;;;3.30;;
20076;SDS011;12348;42.710;23.378;2023-05-10T04:27:21;5.27;;;4.20;;
20076;SDS011;12348;42.710;23.378;2023-05-10T04:29:48;6.90;;;4.13;;
20076;SDS011;12348;42.710;23.378;2023-05-10T04:32:15;4.97;;;3.77;;
20076;SDS011;12348;42.710;23.378;2023-05-10T04:34:42;5.43;;;4.77;;
20076;SDS011;12348;42.710;23.378;2023-05-10T04:37:10;4.27;;;3.57;;
20076;SDS011;12348;42.710;23.378;2023-05-10T04:39:37;7.10;;;4.07;;
20076;SDS011;12348;42.710;23.378;2023-05-10T04:42:04;7.23;;;5.10;;
20076;SDS011;12348;42.710;23.378;2023-05-10T04:44:32;10.27;;;4.70;;
20076;SDS011;12348;42.710;23.378;2023-05-10T04:46:59;6.77;;;4.80;;
20076;SDS011;12348;42.710;23.378;2023-05-10T04:49:27;8.93;;;5.40;;
20076;SDS011;12348;42.710;23.378;2023-05-10T04:51:54;8.07;;;5.43;;
20076;SDS011;12348;42.710;23.378;2023-05-10T04:54:22;8.80;;;5.70;;
20076;SDS011;12348;42.710;23.378;2023-05-10T04:56:49;10.97;;;5.37;;
20076;SDS011;12348;42.710;23.378;2023-05-10T04:59:16;9.53;;;6.17;;
20076;SDS011;12348;42.710;23.378;2023-05-10T05:01:43;11.57;;;5.90;;
20076;SDS011;12348;42.710;23.378;2023-05-10T05:04:10;7.93;;;5.17;;
20076;SDS011;12348;42.710;23.378;2023-05-10T05:06:37;7.13;;;5.40;;
20076;SDS011;12348;42.710;23.378;2023-05-10T05:09:04;9.27;;;6.77;;
20076;SDS011;12348;42.710;23.378;2023-05-10T05:11:32;10.30;;;6.00;;
20076;SDS011;12348;42.710;23.378;2023-05-10T05:13:59;10.70;;;6.60;;
20076;SDS011;12348;42.710;23.378;2023-05-10T05:16:26;12.67;;;7.00;;
20076;SDS011;12348;42.710;23.378;2023-05-10T05:18:53;6.80;;;5.63;;
20076;SDS011;12348;42.710;23.378;2023-05-10T05:21:20;6.97;;;5.60;;
20076;SDS011;12348;42.710;23.378;2023-05-10T05:23:49;8.67;;;6.40;;
20076;SDS011;12348;42.710;23.378;2023-05-10T05:26:15;6.27;;;4.80;;
20076;SDS011;12348;42.710;23.378;2023-05-10T05:28:44;7.17;;;5.43;;
20076;SDS011;12348;42.710;23.378;2023-05-10T05:31:10;10.80;;;6.63;;
20076;SDS011;12348;42.710;23.378;2023-05-10T05:33:37;11.00;;;6.53;;
20076;SDS011;12348;42.710;23.378;2023-05-10T05:36:04;10.37;;;4.87;;
20076;SDS011;12348;42.710;23.378;2023-05-10T05:38:32;9.23;;;6.27;;
20076;SDS011;12348;42.710;23.378;2023-05-10T05:40:59;8.67;;;6.80;;
20076;SDS011;12348;42.710;23.378;2023-05-10T05:43:25;8.30;;;5.70;;
20076;SDS011;12348;42.710;23.378;2023-05-10T05:45:54;8.27;;;6.23;;
20076;SDS011;12348;42.710;23.378;2023-05-10T05:48:22;11.77;;;6.97;;
20076;SDS011;12348;42.710;23.378;2023-05-10T05:50:49;9.60;;;6.73;;
20076;SDS011;12348;42.710;23.378;2023-05-10T05:53:16;9.80;;;6.03;;
20076;SDS011;12348;42.710;23.378;2023-05-10T05:55:50;6.17;;;4.13;;
20076;SDS011;12348;42.710;23.378;2023-05-10T05:58:17;9.37;;;5.60;;
20076;SDS011;12348;42.710;23.378;2023-05-10T06:00:44;8.87;;;6.00;;
20076;SDS011;12348;42.710;23.378;2023-05-10T06:03:14;10.30;;;7.13;;
20076;SDS011;12348;42.710;23.378;2023-05-10T06:05:44;7.63;;;6.13;;
20076;SDS011;12348;42.710;23.378;2023-05-10T06:08:13;8.73;;;5.57;;
20076;SDS011;12348;42.710;23.378;2023-05-10T06:10:40;10.50;;;7.07;;
20076;SDS011;12348;42.710;23.378;2023-05-10T06:13:07;10.43;;;6.43;;
20076;SDS011;12348;42.710;23.378;2023-05-10T06:15:34;14.67;;;6.10;;
20076;SDS011;12348;42.710;23.378;2023-05-10T06:18:01;9.50;;;6.83;;
20076;SDS011;12348;42.710;23.378;2023-05-10T06:20:29;11.17;;;6.93;;
20076;SDS011;12348;42.710;23.378;2023-05-10T06:22:57;9.60;;;5.93;;
20076;SDS011;12348;42.710;23.378;2023-05-10T06:25:23;11.80;;;6.47;;
20076;SDS011;12348;42.710;23.378;2023-05-10T06:27:50;14.67;;;6.10;;
20076;SDS011;12348;42.710;23.378;2023-05-10T06:30:22;7.03;;;4.33;;
20076;SDS011;12348;42.710;23.378;2023-05-10T06:32:52;7.23;;;5.43;;
20076;SDS011;12348;42.710;23.378;2023-05-10T06:35:19;6.80;;;4.67;;
20076;SDS011;12348;42.710;23.378;2023-05-10T06:37:48;7.00;;;4.83;;
20076;SDS011;12348;42.710;23.378;2023-05-10T06:40:15;11.37;;;5.77;;
20076;SDS011;12348;42.710;23.378;2023-05-10T06:42:42;8.90;;;5.57;;
20076;SDS011;12348;42.710;23.378;2023-05-10T06:45:10;9.73;;;6.57;;
20076;SDS011;12348;42.710;23.378;2023-05-10T06:47:37;9.97;;;5.40;;
20076;SDS011;12348;42.710;23.378;2023-05-10T06:50:05;10.53;;;6.10;;
20076;SDS011;12348;42.710;23.378;2023-05-10T06:52:32;10.40;;;7.03;;
20076;SDS011;12348;42.710;23.378;2023-05-10T06:55:00;8.27;;;5.17;;
20076;SDS011;12348;42.710;23.378;2023-05-10T06:57:28;6.80;;;6.00;;
20076;SDS011;12348;42.710;23.378;2023-05-10T06:59:55;5.93;;;4.77;;
20076;SDS011;12348;42.710;23.378;2023-05-10T07:02:24;7.87;;;5.80;;
20076;SDS011;12348;42.710;23.378;2023-05-10T07:04:51;8.20;;;5.43;;
20076;SDS011;12348;42.710;23.378;2023-05-10T07:07:18;13.90;;;5.87;;
20076;SDS011;12348;42.710;23.378;2023-05-10T07:09:45;8.07;;;5.60;;
20076;SDS011;12348;42.710;23.378;2023-05-10T07:12:13;7.07;;;5.57;;
20076;SDS011;12348;42.710;23.378;2023-05-10T07:14:40;7.73;;;5.13;;
20076;SDS011;12348;42.710;23.378;2023-05-10T07:17:07;9.23;;;6.03;;
20076;SDS011;12348;42.710;23.378;2023-05-10T07:19:34;6.83;;;5.20;;
20076;SDS011;12348;42.710;23.378;2023-05-10T07:22:04;6.50;;;4.90;;
20076;SDS011;12348;42.710;23.378;2023-05-10T07:24:31;6.00;;;4.40;;
20076;SDS011;12348;42.710;23.378;2023-05-10T07:26:58;5.83;;;4.60;;
20076;SDS011;12348;42.710;23.378;2023-05-10T07:29:26;8.03;;;5.17;;
20076;SDS011;12348;42.710;23.378;2023-05-10T07:31:53;5.77;;;5.03;;
20076;SDS011;12348;42.710;23.378;2023-05-10T07:34:20;11.53;;;4.67;;
20076;SDS011;12348;42.710;23.378;2023-05-10T07:36:47;6.13;;;4.57;;
20076;SDS011;12348;42.710;23.378;2023-05-10T07:39:14;8.67;;;5.90;;
20076;SDS011;12348;42.710;23.378;2023-05-10T07:41:41;6.70;;;5.03;;
20076;SDS011;12348;42.710;23.378;2023-05-10T07:44:08;12.43;;;5.57;;
20076;SDS011;12348;42.710;23.378;2023-05-10T07:46:36;6.00;;;4.03;;
20076;SDS011;12348;42.710;23.378;2023-05-10T07:49:04;9.00;;;6.23;;
20076;SDS011;12348;42.710;23.378;2023-05-10T07:51:31;8.33;;;5.03;;
20076;SDS011;12348;42.710;23.378;2023-05-10T07:53:58;7.73;;;4.73;;
20076;SDS011;12348;42.710;23.378;2023-05-10T07:56:26;7.63;;;5.40;;
20076;SDS011;12348;42.710;23.378;2023-05-10T07:58:54;7.47;;;4.93;;
20076;SDS011;12348;42.710;23.378;2023-05-10T08:01:22;7.23;;;5.73;;
20076;SDS011;12348;42.710;23.378;2023-05-10T08:03:51;12.30;;;5.80;;
20076;SDS011;12348;42.710;23.378;2023-05-10T08:06:18;11.00;;;5.67;;
20076;SDS011;12348;42.710;23.378;2023-05-10T08:08:45;6.83;;;5.00;;
20076;SDS011;12348;42.710;23.378;2023-05-10T08:11:15;9.03;;;5.67;;
20076;SDS011;12348;42.710;23.378;2023-05-10T08:13:42;9.73;;;5.70;;
20076;SDS011;12348;42.710;23.378;2023-05-10T08:16:10;9.83;;;7.10;;
20076;SDS011;12348;42.710;23.378;2023-05-10T08:18:36;8.37;;;5.77;;
20076;SDS011;12348;42.710;23.378;2023-05-10T08:21:05;11.50;;;5.20;;
20076;SDS011;12348;42.710;23.378;2023-05-10T08:23:32;10.20;;;5.93;;
20076;SDS011;12348;42.710;23.378;2023-05-10T08:26:00;7.67;;;5.97;;
20076;SDS011;12348;42.710;23.378;2023-05-10T08:28:27;8.47;;;6.07;;
20076;SDS011;12348;42.710;23.378;2023-05-10T08:30:54;8.43;;;6.43;;
20076;SDS011;12348;42.710;23.378;2023-05-10T08:33:21;8.97;;;6.67;;
20076;SDS011;12348;42.710;23.378;2023-05-10T08:35:48;12.33;;;6.63;;
20076;SDS011;12348;42.710;23.378;2023-05-10T08:38:17;9.60;;;6.10;;
20076;SDS011;12348;42.710;23.378;2023-05-10T08:40:44;9.60;;;6.27;;
20076;SDS011;12348;42.710;23.378;2023-05-10T08:43:11;12.13;;;6.20;;
20076;SDS011;12348;42.710;23.378;2023-05-10T08:45:40;11.77;;;6.30;;
20076;SDS011;12348;42.710;23.378;2023-05-10T08:48:08;11.13;;;6.77;;
20076;SDS011;12348;42.710;23.378;2023-05-10T08:50:37;12.07;;;6.33;;
20076;SDS011;12348;42.710;23.378;2023-05-10T08:53:05;8.23;;;6.77;;
20076;SDS011;12348;42.710;23.378;2023-05-10T08:55:34;11.80;;;6.27;;
20076;SDS011;12348;42.710;23.378;2023-05-10T08:58:03;8.93;;;5.73;;
20076;SDS011;12348;42.710;23.378;2023-05-10T09:00:30;11.20;;;6.50;;
20076;SDS011;12348;42.710;23.378;2023-05-10T09:02:57;5.90;;;5.10;;
20076;SDS011;12348;42.710;23.378;2023-05-10T09:05:24;9.53;;;6.33;;
20076;SDS011;12348;42.710;23.378;2023-05-10T09:07:52;7.00;;;5.10;;
20076;SDS011;12348;42.710;23.378;2023-05-10T09:10:19;6.30;;;5.40;;
20076;SDS011;12348;42.710;23.378;2023-05-10T09:12:48;10.40;;;6.90;;
20076;SDS011;12348;42.710;23.378;2023-05-10T09:15:15;7.77;;;5.50;;
20076;SDS011;12348;42.710;23.378;2023-05-10T09:17:44;9.20;;;6.27;;
20076;SDS011;12348;42.710;23.378;2023-05-10T09:20:11;11.63;;;6.43;;
20076;SDS011;12348;42.710;23.378;2023-05-10T09:22:40;10.00;;;7.07;;
20076;SDS011;12348;42.710;23.378;2023-05-10T09:25:07;12.87;;;8.27;;
20076;SDS011;12348;42.710;23.378;2023-05-10T09:27:36;12.73;;;8.50;;
20076;SDS011;12348;42.710;23.378;2023-05-10T09:30:05;9.17;;;7.03;;
20076;SDS011;12348;42.710;23.378;2023-05-10T09:32:37;9.27;;;6.60;;
20076;SDS011;12348;42.710;23.378;2023-05-10T09:35:08;12.60;;;7.50;;
20076;SDS011;12348;42.710;23.378;2023-05-10T09:37:35;12.20;;;8.40;;
20076;SDS011;12348;42.710;23.378;2023-05-10T09:40:04;14.73;;;6.80;;
20076;SDS011;12348;42.710;23.378;2023-05-10T09:42:32;10.63;;;6.70;;
20076;SDS011;12348;42.710;23.378;2023-05-10T09:45:00;10.27;;;6.40;;
20076;SDS011;12348;42.710;23.378;2023-05-10T09:47:29;8.40;;;5.90;;
20076;SDS011;12348;42.710;23.378;2023-05-10T09:49:58;8.30;;;6.00;;
20076;SDS011;12348;42.710;23.378;2023-05-10T09:52:28;13.27;;;5.10;;
20076;SDS011;12348;42.710;23.378;2023-05-10T09:54:58;8.13;;;5.97;;
20076;SDS011;12348;42.710;23.378;2023-05-10T09:57:25;11.90;;;7.40;;
20076;SDS011;12348;42.710;23.378;2023-05-10T09:59:52;7.07;;;5.10;;
20076;SDS011;12348;42.710;23.378;2023-05-10T10:02:20;6.53;;;5.83;;
20076;SDS011;12348;42.710;23.378;2023-05-10T10:04:50;9.97;;;6.53;;
20076;SDS011;12348;42.710;23.378;2023-05-10T10:07:21;7.73;;;5.03;;
20076;SDS011;12348;42.710;23.378;2023-05-10T10:09:49;14.57;;;5.80;;
20076;SDS011;12348;42.710;23.378;2023-05-10T10:12:17;12.80;;;5.57;;
20076;SDS011;12348;42.710;23.378;2023-05-10T10:14:45;8.17;;;4.93;;
20076;SDS011;12348;42.710;23.378;2023-05-10T10:17:14;8.90;;;5.90;;
20076;SDS011;12348;42.710;23.378;2023-05-10T10:19:41;5.60;;;4.80;;
20076;SDS011;12348;42.710;23.378;2023-05-10T10:22:10;8.40;;;5.53;;
20076;SDS011;12348;42.710;23.378;2023-05-10T10:24:37;13.63;;;6.03;;
20076;SDS011;12348;42.710;23.378;2023-05-10T10:27:11;11.73;;;5.50;;
20076;SDS011;12348;42.710;23.378;2023-05-10T10:29:49;5.50;;;4.47;;
20076;SDS011;12348;42.710;23.378;2023-05-10T10:32:27;10.67;;;5.90;;
20076;SDS011;12348;42.710;23.378;2023-05-10T10:35:02;8.43;;;5.33;;
20076;SDS011;12348;42.710;23.378;2023-05-10T10:37:44;9.07;;;6.20;;
20076;SDS011;12348;42.710;23.378;2023-05-10T10:45:48;9.50;;;5.93;;
20076;SDS011;12348;42.710;23.378;2023-05-10T10:48:36;8.63;;;4.57;;
20076;SDS011;12348;42.710;23.378;2023-05-10T10:51:03;7.10;;;4.13;;
20076;SDS011;12348;42.710;23.378;2023-05-10T10:53:32;8.83;;;5.73;;
20076;SDS011;12348;42.710;23.378;2023-05-10T10:56:04;6.83;;;4.47;;
20076;SDS011;12348;42.710;23.378;2023-05-10T10:58:34;8.23;;;4.83;;
20076;SDS011;12348;42.710;23.378;2023-05-10T11:01:13;7.10;;;4.20;;
20076;SDS011;12348;42.710;23.378;2023-05-10T11:03:41;8.23;;;4.40;;
20076;SDS011;12348;42.710;23.378;2023-05-10T11:06:34;6.13;;;4.20;;
20076;SDS011;12348;42.710;23.378;2023-05-10T11:09:06;6.87;;;4.53;;
20076;SDS011;12348;42.710;23.378;2023-05-10T11:11:34;8.13;;;3.90;;
20076;SDS011;12348;42.710;23.378;2023-05-10T11:14:02;7.00;;;4.87;;
20076;SDS011;12348;42.710;23.378;2023-05-10T11:16:40;11.40;;;4.90;;
20076;SDS011;12348;42.710;23.378;2023-05-10T11:19:08;9.97;;;5.83;;
20076;SDS011;12348;42.710;23.378;2023-05-10T11:21:44;6.10;;;4.90;;
20076;SDS011;12348;42.710;23.378;2023-05-10T11:24:14;6.90;;;5.03;;
20076;SDS011;12348;42.710;23.378;2023-05-10T11:26:42;6.60;;;4.47;;
20076;SDS011;12348;42.710;23.378;2023-05-10T11:29:09;7.90;;;5.27;;
20076;SDS011;12348;42.710;23.378;2023-05-10T11:31:38;5.90;;;4.27;;
20076;SDS011;12348;42.710;23.378;2023-05-10T11:34:09;10.80;;;5.57;;
20076;SDS011;12348;42.710;23.378;2023-05-10T11:36:36;8.93;;;5.47;;
20076;SDS011;12348;42.710;23.378;2023-05-10T11:39:03;13.60;;;5.87;;
20076;SDS011;12348;42.710;23.378;2023-05-10T11:41:32;6.97;;;4.73;;
20076;SDS011;12348;42.710;23.378;2023-05-10T11:43:59;7.80;;;5.77;;
20076;SDS011;12348;42.710;23.378;2023-05-10T11:46:26;9.80;;;6.80;;
20076;SDS011;12348;42.710;23.378;2023-05-10T11:48:55;7.67;;;5.87;;
20076;SDS011;12348;42.710;23.378;2023-05-10T11:51:27;12.90;;;6.03;;
20076;SDS011;12348;42.710;23.378;2023-05-10T11:53:54;11.50;;;6.17;;
20076;SDS011;12348;42.710;23.378;2023-05-10T11:56:21;10.00;;;5.87;;
20076;SDS011;12348;42.710;23.378;2023-05-10T11:58:53;9.40;;;5.47;;
20076;SDS011;12348;42.710;23.378;2023-05-10T12:01:21;6.60;;;5.80;;
20076;SDS011;12348;42.710;23.378;2023-05-10T12:03:49;6.27;;;4.53;;
20076;SDS011;12348;42.710;23.378;2023-05-10T12:06:17;9.93;;;4.97;;
20076;SDS011;12348;42.710;23.378;2023-05-10T12:08:45;6.40;;;4.00;;
20076;SDS011;12348;42.710;23.378;2023-05-10T12:11:12;9.43;;;5.70;;
20076;SDS011;12348;42.710;23.378;2023-05-10T12:13:41;8.17;;;5.27;;
20076;SDS011;12348;42.710;23.378;2023-05-10T12:16:17;14.00;;;5.77;;
20076;SDS011;12348;42.710;23.378;2023-05-10T12:18:45;10.83;;;5.23;;
20076;SDS011;12348;42.710;23.378;2023-05-10T12:21:14;7.10;;;5.30;;
20076;SDS011;12348;42.710;23.378;2023-05-10T12:23:41;12.90;;;7.07;;
20076;SDS011;12348;42.710;23.378;2023-05-10T12:26:08;12.43;;;6.63;;
20076;SDS011;12348;42.710;23.378;2023-05-10T12:28:36;9.17;;;5.80;;
20076;SDS011;12348;42.710;23.378;2023-05-10T12:31:05;9.17;;;6.17;;
20076;SDS011;12348;42.710;23.378;2023-05-10T12:33:37;12.37;;;6.57;;
20076;SDS011;12348;42.710;23.378;2023-05-10T12:36:06;10.87;;;6.87;;
20076;SDS011;12348;42.710;23.378;2023-05-10T12:38:34;10.60;;;6.70;;
20076;SDS011;12348;42.710;23.378;2023-05-10T12:41:03;11.67;;;7.00;;
20076;SDS011;12348;42.710;23.378;2023-05-10T12:43:31;14.17;;;6.87;;
20076;SDS011;12348;42.710;23.378;2023-05-10T12:45:58;9.30;;;5.40;;
20076;SDS011;12348;42.710;23.378;2023-05-10T12:48:30;6.30;;;5.30;;
20076;SDS011;12348;42.710;23.378;2023-05-10T12:51:00;14.93;;;4.80;;
20076;SDS011;12348;42.710;23.378;2023-05-10T12:53:27;11.17;;;7.33;;
20076;SDS011;12348;42.710;23.378;2023-05-10T12:55:54;14.63;;;7.53;;
20076;SDS011;12348;42.710;23.378;2023-05-10T12:58:21;15.23;;;8.73;;
20076;SDS011;12348;42.710;23.378;2023-05-10T13:00:48;10.87;;;6.47;;
20076;SDS011;12348;42.710;23.378;2023-05-10T13:03:16;7.80;;;5.83;;
20076;SDS011;12348;42.710;23.378;2023-05-10T13:05:43;7.23;;;5.50;;
20076;SDS011;12348;42.710;23.378;2023-05-10T13:08:11;7.23;;;5.53;;
20076;SDS011;12348;42.710;23.378;2023-05-10T13:10:38;8.47;;;5.80;;
20076;SDS011;12348;42.710;23.378;2023-05-10T13:13:05;9.37;;;5.63;;
20076;SDS011;12348;42.710;23.378;2023-05-10T13:15:33;8.10;;;6.03;;
20076;SDS011;12348;42.710;23.378;2023-05-10T13:18:00;7.80;;;6.00;;
20076;SDS011;12348;42.710;23.378;2023-05-10T13:20:27;7.37;;;5.00;;
20076;SDS011;12348;42.710;23.378;2023-05-10T13:22:54;12.03;;;5.53;;
20076;SDS011;12348;42.710;23.378;2023-05-10T13:25:22;6.93;;;5.33;;
20076;SDS011;12348;42.710;23.378;2023-05-10T13:27:49;6.83;;;5.20;;
20076;SDS011;12348;42.710;23.378;2023-05-10T13:30:16;8.77;;;6.07;;
20076;SDS011;12348;42.710;23.378;2023-05-10T13:32:43;9.20;;;4.47;;
20076;SDS011;12348;42.710;23.378;2023-05-10T13:35:10;7.90;;;6.73;;
20076;SDS011;12348;42.710;23.378;2023-05-10T13:37:37;11.33;;;7.23;;
20076;SDS011;12348;42.710;23.378;2023-05-10T13:40:04;11.63;;;7.53;;
20076;SDS011;12348;42.710;23.378;2023-05-10T13:42:33;13.60;;;6.77;;
20076;SDS011;12348;42.710;23.378;2023-05-10T13:45:00;6.97;;;5.80;;
20076;SDS011;12348;42.710;23.378;2023-05-10T13:47:27;8.10;;;5.37;;
20076;SDS011;12348;42.710;23.378;2023-05-10T13:49:54;7.20;;;5.10;;
20076;SDS011;12348;42.710;23.378;2023-05-10T13:52:22;10.87;;;6.10;;
20076;SDS011;12348;42.710;23.378;2023-05-10T13:54:49;8.80;;;4.67;;
20076;SDS011;12348;42.710;23.378;2023-05-10T13:57:17;9.87;;;4.73;;
20076;SDS011;12348;42.710;23.378;2023-05-10T13:59:45;8.37;;;5.80;;
20076;SDS011;12348;42.710;23.378;2023-05-10T14:02:15;8.47;;;5.73;;
20076;SDS011;12348;42.710;23.378;2023-05-10T14:04:42;10.50;;;4.93;;
20076;SDS011;12348;42.710;23.378;2023-05-10T14:07:09;14.13;;;5.80;;
20076;SDS011;12348;42.710;23.378;2023-05-10T14:09:35;15.37;;;6.20;;
20076;SDS011;12348;42.710;23.378;2023-05-10T14:12:02;7.90;;;5.27;;
20076;SDS011;12348;42.710;23.378;2023-05-10T14:14:29;10.63;;;6.47;;
20076;SDS011;12348;42.710;23.378;2023-05-10T14:16:57;8.97;;;5.87;;
20076;SDS011;12348;42.710;23.378;2023-05-10T14:19:24;10.20;;;4.60;;
20076;SDS011;12348;42.710;23.378;2023-05-10T14:21:51;8.20;;;4.97;;
20076;SDS011;12348;42.710;23.378;2023-05-10T14:24:18;8.20;;;5.83;;
20076;SDS011;12348;42.710;23.378;2023-05-10T14:26:45;17.80;;;4.50;;
20076;SDS011;12348;42.710;23.378;2023-05-10T14:29:12;7.50;;;5.03;;
20076;SDS011;12348;42.710;23.378;2023-05-10T14:31:39;9.87;;;4.80;;
20076;SDS011;12348;42.710;23.378;2023-05-10T14:34:08;8.40;;;6.20;;
20076;SDS011;12348;42.710;23.378;2023-05-10T14:36:34;10.83;;;6.20;;
20076;SDS011;12348;42.710;23.378;2023-05-10T14:39:01;11.50;;;5.93;;
20076;SDS011;12348;42.710;23.378;2023-05-10T14:41:28;7.93;;;5.83;;
20076;SDS011;12348;42.710;23.378;2023-05-10T14:43:55;11.07;;;5.93;;
20076;SDS011;12348;42.710;23.378;2023-05-10T14:46:22;13.33;;;6.70;;